createdAt,value
2023-03-11T00:00:47.268Z,12.90
2023-03-11T00:03:16.941Z,12.95
2023-03-11T00:05:45.592Z,13.02
2023-03-11T00:08:16.559Z,13.01
2023-03-11T00:10:46.030Z,13.17
2023-03-11T00:13:15.359Z,13.29
2023-03-11T00:15:45.218Z,13.39
2023-03-11T00:18:12.967Z,13.47
2023-03-11T00:20:43.796Z,13.47
2023-03-11T00:23:13.634Z,13.40
2023-03-11T00:25:43.215Z,13.40
2023-03-11T00:28:11.243Z,13.50
2023-03-11T00:30:40.850Z,13.45
2023-03-11T00:33:10.903Z,13.47
2023-03-11T00:35:41.299Z,13.41
2023-03-11T00:38:11.859Z,13.42
2023-03-11T00:40:40.072Z,13.27
2023-03-11T00:43:07.446Z,13.12
2023-03-11T00:45:37.133Z,12.99
2023-03-11T00:48:04.905Z,12.83
2023-03-11T00:50:35.947Z,12.91
2023-03-11T00:53:05.168Z,12.88
2023-03-11T00:55:34.816Z,12.75
2023-03-11T00:58:06.819Z,12.79
2023-03-11T01:00:47.481Z,12.74
2023-03-11T01:03:14.853Z,12.68
2023-03-11T01:05:42.310Z,12.66
2023-03-11T01:08:09.634Z,12.58
2023-03-11T01:10:37.646Z,12.62
2023-03-11T01:13:05.311Z,12.64
2023-03-11T01:15:37.182Z,12.59
2023-03-11T01:18:06.007Z,12.59
2023-03-11T01:20:35.976Z,12.69
2023-03-11T01:23:04.336Z,12.70
2023-03-11T01:25:31.758Z,12.74
2023-03-11T01:27:59.997Z,12.64
2023-03-11T01:30:28.703Z,12.67
2023-03-11T01:32:57.546Z,12.64
2023-03-11T01:35:27.185Z,12.54
2023-03-11T01:37:54.898Z,12.45
2023-03-11T01:40:39.273Z,12.43
2023-03-11T01:43:41.059Z,12.34
2023-03-11T01:46:26.692Z,12.24
2023-03-11T01:48:58.978Z,12.04
2023-03-11T01:51:36.312Z,11.72
2023-03-11T01:54:10.613Z,11.40
2023-03-11T01:56:40.143Z,11.14
2023-03-11T01:59:11.437Z,11.14
2023-03-11T02:01:46.144Z,10.98
2023-03-11T02:04:14.199Z,10.86
2023-03-11T02:06:42.065Z,10.81
2023-03-11T02:09:09.603Z,10.71
2023-03-11T02:11:37.261Z,10.77
2023-03-11T02:14:08.704Z,10.86
2023-03-11T02:16:36.783Z,10.73
2023-03-11T02:19:33.627Z,10.64
2023-03-11T02:22:02.519Z,10.58
2023-03-11T02:24:45.413Z,10.68
2023-03-11T02:27:16.329Z,10.88
2023-03-11T02:29:49.783Z,11.08
2023-03-11T02:32:19.292Z,11.25
2023-03-11T02:34:47.264Z,11.31
2023-03-11T02:37:16.906Z,11.47
2023-03-11T02:39:52.867Z,11.55
2023-03-11T02:42:30.034Z,11.64
2023-03-11T02:45:08.651Z,11.52
2023-03-11T02:47:39.053Z,11.46
2023-03-11T02:50:12.212Z,11.41
2023-03-11T02:52:39.629Z,11.37
2023-03-11T02:55:08.520Z,11.32
2023-03-11T02:57:36.390Z,11.50
2023-03-11T03:00:08.658Z,11.58
2023-03-11T03:02:37.162Z,11.62
2023-03-11T03:05:06.086Z,11.63
2023-03-11T03:07:34.010Z,11.56
2023-03-11T03:10:01.989Z,11.43
2023-03-11T03:12:30.957Z,11.35
2023-03-11T03:14:58.561Z,11.30
2023-03-11T03:17:26.362Z,11.24
2023-03-11T03:19:53.711Z,11.22
2023-03-11T03:22:21.122Z,11.16
2023-03-11T03:24:48.887Z,11.06
2023-03-11T03:27:16.825Z,11.19
2023-03-11T03:29:44.201Z,11.20
2023-03-11T03:32:12.212Z,11.27
2023-03-11T03:34:39.626Z,11.17
2023-03-11T03:37:07.344Z,11.09
2023-03-11T03:39:34.873Z,11.12
2023-03-11T03:42:03.644Z,11.10
2023-03-11T03:44:33.879Z,11.18
2023-03-11T03:47:01.408Z,11.06
2023-03-11T03:49:29.300Z,11.10
2023-03-11T03:51:57.080Z,11.14
2023-03-11T03:54:31.184Z,11.05
2023-03-11T03:56:58.990Z,10.97
2023-03-11T03:59:26.375Z,11.06
2023-03-11T04:01:57.606Z,10.94
2023-03-11T04:04:26.396Z,10.99
2023-03-11T04:06:53.851Z,11.05
2023-03-11T04:09:21.294Z,11.02
2023-03-11T04:11:48.874Z,11.10
2023-03-11T04:14:17.798Z,11.07
2023-03-11T04:16:52.869Z,10.91
2023-03-11T04:19:20.402Z,11.02
2023-03-11T04:21:48.003Z,11.02
2023-03-11T04:24:15.638Z,11.13
2023-03-11T04:26:43.448Z,11.12
2023-03-11T04:29:14.994Z,11.10
2023-03-11T04:31:48.121Z,11.11
2023-03-11T04:34:15.649Z,11.00
2023-03-11T04:36:43.132Z,11.15
2023-03-11T04:39:12.519Z,11.19
2023-03-11T04:41:43.381Z,11.20
2023-03-11T04:44:14.585Z,11.16
2023-03-11T04:46:42.424Z,11.18
2023-03-11T04:49:10.859Z,11.16
2023-03-11T04:51:38.850Z,11.08
2023-03-11T04:54:07.257Z,11.17
2023-03-11T04:56:34.821Z,11.16
2023-03-11T04:59:02.297Z,11.18
2023-03-11T05:01:31.676Z,11.16
2023-03-11T05:04:05.810Z,11.24
2023-03-11T05:06:33.591Z,11.09
2023-03-11T05:09:03.024Z,11.11
2023-03-11T05:11:31.610Z,11.20
2023-03-11T05:13:58.983Z,11.20
2023-03-11T05:16:26.385Z,11.15
2023-03-11T05:18:53.791Z,11.04
2023-03-11T05:21:21.128Z,10.97
2023-03-11T05:23:48.517Z,11.00
2023-03-11T05:26:16.010Z,11.09
2023-03-11T05:28:44.969Z,11.10
2023-03-11T05:31:12.818Z,11.12
2023-03-11T05:33:40.918Z,11.02
2023-03-11T05:36:11.692Z,10.83
2023-03-11T05:38:42.463Z,10.63
2023-03-11T05:41:10.796Z,10.52
2023-03-11T05:43:39.209Z,10.47
2023-03-11T05:46:06.728Z,10.45
2023-03-11T05:48:34.249Z,10.47
2023-03-11T05:51:01.845Z,10.61
2023-03-11T05:53:29.285Z,10.62
2023-03-11T05:55:58.597Z,10.51
2023-03-11T05:58:29.269Z,10.43
2023-03-11T06:00:57.405Z,10.36
2023-03-11T06:03:24.887Z,10.32
2023-03-11T06:05:53.161Z,10.36
2023-03-11T06:08:22.054Z,10.37
2023-03-11T06:10:49.476Z,10.24
2023-03-11T06:13:19.353Z,10.17
2023-03-11T06:15:50.208Z,10.17
2023-03-11T06:18:20.566Z,10.36
2023-03-11T06:20:48.185Z,10.35
2023-03-11T06:23:15.672Z,10.37
2023-03-11T06:25:43.106Z,10.48
2023-03-11T06:28:10.882Z,10.61
2023-03-11T06:30:39.217Z,10.85
2023-03-11T06:33:11.207Z,11.01
2023-03-11T06:35:38.647Z,11.47
2023-03-11T06:38:06.020Z,11.77
2023-03-11T06:40:33.580Z,12.09
2023-03-11T06:43:01.032Z,12.27
2023-03-11T06:45:32.668Z,12.26
2023-03-11T06:48:00.155Z,12.33
2023-03-11T06:50:29.050Z,12.28
2023-03-11T06:53:00.351Z,12.32
2023-03-11T06:55:28.436Z,12.38
2023-03-11T06:57:55.896Z,12.41
2023-03-11T07:00:23.638Z,12.43
2023-03-11T07:02:56.028Z,12.46
2023-03-11T07:05:24.447Z,12.59
2023-03-11T07:07:56.466Z,12.53
2023-03-11T07:10:25.361Z,12.45
2023-03-11T07:12:52.929Z,12.54
2023-03-11T07:15:20.453Z,12.66
2023-03-11T07:17:47.859Z,12.86
2023-03-11T07:20:15.692Z,13.17
2023-03-11T07:22:43.075Z,13.38
2023-03-11T07:25:10.426Z,13.41
2023-03-11T07:27:37.760Z,13.50
2023-03-11T07:30:05.449Z,13.67
2023-03-11T07:32:33.322Z,13.73
2023-03-11T07:35:00.702Z,13.95
2023-03-11T07:37:28.063Z,14.14
2023-03-11T07:39:55.627Z,14.38
2023-03-11T07:42:22.953Z,14.53
2023-03-11T07:44:51.912Z,14.68
2023-03-11T07:47:19.686Z,14.87
2023-03-11T07:49:47.270Z,14.95
2023-03-11T07:52:14.612Z,15.16
2023-03-11T07:54:41.953Z,15.27
2023-03-11T07:57:13.077Z,15.63
2023-03-11T07:59:40.436Z,15.69
2023-03-11T08:02:07.829Z,15.82
2023-03-11T08:04:35.168Z,15.91
2023-03-11T08:07:02.553Z,15.93
2023-03-11T08:09:29.869Z,16.07
2023-03-11T08:11:57.247Z,16.18
2023-03-11T08:14:24.621Z,16.23
2023-03-11T08:16:52.109Z,16.42
2023-03-11T08:19:19.568Z,16.44
2023-03-11T08:21:46.962Z,16.56
2023-03-11T08:24:14.710Z,16.67
2023-03-11T08:26:42.461Z,16.92
2023-03-11T08:29:09.838Z,16.86
2023-03-11T08:31:37.388Z,17.00
2023-03-11T08:34:08.351Z,17.06
2023-03-11T08:36:36.452Z,17.24
2023-03-11T08:39:04.330Z,17.43
2023-03-11T08:41:31.994Z,17.58
2023-03-11T08:43:59.939Z,17.71
2023-03-11T08:46:33.223Z,17.79
2023-03-11T08:49:01.703Z,17.83
2023-03-11T08:51:32.153Z,17.99
2023-03-11T08:54:00.418Z,18.09
2023-03-11T08:56:28.430Z,18.31
2023-03-11T08:58:55.928Z,18.24
2023-03-11T09:01:23.883Z,18.25
2023-03-11T09:03:51.843Z,18.27
2023-03-11T09:06:19.366Z,18.42
2023-03-11T09:08:47.876Z,18.56
2023-03-11T09:11:16.441Z,18.71
2023-03-11T09:13:44.254Z,18.69
2023-03-11T09:16:17.724Z,18.82
2023-03-11T09:18:45.195Z,18.88
2023-03-11T09:21:13.166Z,19.16
2023-03-11T09:23:44.033Z,19.43
2023-03-11T09:26:12.822Z,19.33
2023-03-11T09:28:42.462Z,19.31
2023-03-11T09:31:09.926Z,19.32
2023-03-11T09:33:42.893Z,19.26
2023-03-11T09:36:16.028Z,19.41
2023-03-11T09:38:44.202Z,19.61
2023-03-11T09:41:17.609Z,19.72
2023-03-11T09:44:11.995Z,19.65
2023-03-11T09:46:42.257Z,19.85
2023-03-11T09:49:39.429Z,19.88
2023-03-11T09:52:06.693Z,19.88
2023-03-11T09:54:39.098Z,20.12
2023-03-11T09:57:09.993Z,20.23
2023-03-11T09:59:40.485Z,20.45
2023-03-11T10:02:15.071Z,20.62
2023-03-11T10:04:45.849Z,20.66
2023-03-11T10:07:22.166Z,20.68
2023-03-11T10:09:57.366Z,20.84
2023-03-11T10:12:36.463Z,21.02
2023-03-11T10:15:22.233Z,21.10
2023-03-11T10:18:09.782Z,21.10
2023-03-11T10:20:58.641Z,21.22
2023-03-11T10:23:57.163Z,21.24
2023-03-11T10:26:50.025Z,21.11
2023-03-11T10:29:26.931Z,21.27
2023-03-11T10:32:03.118Z,21.53
2023-03-11T10:34:38.641Z,21.29
2023-03-11T10:37:14.319Z,21.36
2023-03-11T10:39:41.704Z,21.24
2023-03-11T10:42:28.866Z,21.48
2023-03-11T10:44:56.227Z,21.63
2023-03-11T10:47:25.636Z,21.79
2023-03-11T10:49:52.975Z,21.69
2023-03-11T10:52:20.801Z,21.70
2023-03-11T10:54:59.516Z,21.83
2023-03-11T10:57:32.894Z,22.18
2023-03-11T11:00:17.378Z,22.29
2023-03-11T11:02:53.301Z,22.50
2023-03-11T11:05:20.559Z,22.43
2023-03-11T11:08:11.805Z,22.43
2023-03-11T11:10:50.629Z,22.39
2023-03-11T11:13:21.020Z,22.33
2023-03-11T11:16:03.426Z,22.59
2023-03-11T11:18:42.714Z,22.52
2023-03-11T11:21:27.620Z,22.58
2023-03-11T11:24:24.100Z,22.69
2023-03-11T11:27:16.170Z,22.72
2023-03-11T11:29:43.713Z,22.65
2023-03-11T11:32:17.671Z,22.78
2023-03-11T11:35:02.453Z,22.65
2023-03-11T11:37:32.982Z,22.83
2023-03-11T11:40:15.857Z,22.90
2023-03-11T11:42:52.197Z,23.15
2023-03-11T11:45:36.511Z,23.21
2023-03-11T11:48:47.570Z,23.15
2023-03-11T11:51:25.512Z,23.20
2023-03-11T11:54:18.736Z,23.57
2023-03-11T11:56:46.523Z,23.30
2023-03-11T11:59:21.769Z,23.28
2023-03-11T12:01:58.062Z,23.32
2023-03-11T12:04:52.954Z,23.37
2023-03-11T12:07:49.201Z,23.22
2023-03-11T12:10:29.433Z,23.31
2023-03-11T12:13:29.117Z,23.38
2023-03-11T12:16:14.938Z,23.33
2023-03-11T12:18:51.635Z,23.34
2023-03-11T12:21:46.048Z,23.29
2023-03-11T12:24:31.828Z,23.36
2023-03-11T12:27:05.232Z,23.65
2023-03-11T12:29:45.683Z,23.69
2023-03-11T12:32:34.308Z,23.62
2023-03-11T12:35:10.862Z,23.59
2023-03-11T12:37:38.954Z,23.87
2023-03-11T12:40:43.870Z,24.05
2023-03-11T12:43:47.595Z,23.84
2023-03-11T12:46:19.121Z,24.00
2023-03-11T12:48:50.420Z,24.13
2023-03-11T12:51:26.774Z,23.85
2023-03-11T12:53:55.728Z,23.96
2023-03-11T12:56:42.559Z,24.16
2023-03-11T12:59:34.456Z,24.08
2023-03-11T13:02:20.004Z,24.21
2023-03-11T13:05:11.149Z,24.04
2023-03-11T13:07:47.917Z,24.14
2023-03-11T13:10:15.228Z,24.35
2023-03-11T13:12:48.661Z,24.35
2023-03-11T13:15:18.770Z,24.34
2023-03-11T13:18:07.483Z,24.19
2023-03-11T13:20:45.008Z,24.34
2023-03-11T13:23:12.359Z,24.50
2023-03-11T13:25:43.738Z,24.15
2023-03-11T13:28:39.118Z,24.46
2023-03-11T13:31:18.494Z,24.20
2023-03-11T13:33:54.507Z,24.02
2023-03-11T13:36:36.721Z,24.14
2023-03-11T13:39:18.991Z,24.20
2023-03-11T13:41:47.656Z,24.04
2023-03-11T13:44:21.339Z,23.99
2023-03-11T13:46:53.397Z,24.21
2023-03-11T13:49:30.517Z,24.11
2023-03-11T13:51:59.437Z,24.13
2023-03-11T13:54:59.376Z,24.07
2023-03-11T13:57:50.911Z,24.26
2023-03-11T14:00:24.219Z,24.16
2023-03-11T14:02:55.232Z,24.32
2023-03-11T14:05:35.049Z,24.38
2023-03-11T14:08:22.074Z,24.41
2023-03-11T14:11:12.474Z,24.27
2023-03-11T14:13:47.184Z,24.06
2023-03-11T14:16:22.974Z,24.00
2023-03-11T14:19:02.236Z,24.12
2023-03-11T14:21:31.735Z,24.30
2023-03-11T14:24:00.284Z,24.29
2023-03-11T14:26:34.988Z,24.18
2023-03-11T14:29:08.829Z,24.15
2023-03-11T14:31:39.442Z,24.16
2023-03-11T14:34:10.939Z,24.14
2023-03-11T14:36:43.477Z,24.01
2023-03-11T14:39:23.068Z,24.10
2023-03-11T14:41:53.822Z,24.53
2023-03-11T14:44:23.868Z,25.47
2023-03-11T14:46:52.771Z,25.68
2023-03-11T14:49:23.170Z,26.67
2023-03-11T14:52:02.474Z,27.40
2023-03-11T14:54:33.920Z,28.32
2023-03-11T14:57:11.556Z,28.53
2023-03-11T14:59:39.944Z,28.79
2023-03-11T15:02:55.676Z,29.26
2023-03-11T15:05:30.994Z,30.07
2023-03-11T15:08:01.940Z,30.18
2023-03-11T15:10:29.521Z,30.85
2023-03-11T15:13:29.008Z,30.64
2023-03-11T15:16:05.516Z,30.60
2023-03-11T15:18:37.901Z,30.79
2023-03-11T15:21:05.381Z,30.95
2023-03-11T15:23:35.773Z,31.08
2023-03-11T15:26:04.304Z,31.61
2023-03-11T15:28:33.768Z,32.02
2023-03-11T15:31:16.829Z,32.17
2023-03-11T15:33:45.059Z,31.52
2023-03-11T15:36:31.811Z,30.70
2023-03-11T15:39:28.960Z,29.54
2023-03-11T15:42:03.511Z,27.73
2023-03-11T15:44:36.243Z,27.08
2023-03-11T15:47:04.299Z,26.52
2023-03-11T15:49:31.750Z,25.62
2023-03-11T15:52:00.357Z,24.51
2023-03-11T15:54:28.584Z,24.19
2023-03-11T15:56:58.771Z,24.28
2023-03-11T15:59:27.856Z,24.74
2023-03-11T16:01:55.696Z,24.49
2023-03-11T16:04:23.142Z,23.89
2023-03-11T16:07:02.973Z,23.29
2023-03-11T16:09:34.674Z,22.78
2023-03-11T16:12:02.474Z,22.41
2023-03-11T16:14:29.837Z,22.34
2023-03-11T16:16:57.153Z,21.95
2023-03-11T16:19:24.490Z,21.59
2023-03-11T16:21:51.873Z,21.44
2023-03-11T16:24:22.435Z,21.09
2023-03-11T16:26:52.209Z,21.01
2023-03-11T16:29:20.234Z,20.65
2023-03-11T16:31:49.261Z,20.15
2023-03-11T16:34:16.624Z,19.82
2023-03-11T16:36:43.968Z,19.83
2023-03-11T16:39:11.344Z,19.48
2023-03-11T16:41:44.121Z,19.24
2023-03-11T16:44:11.763Z,19.02
2023-03-11T16:46:39.357Z,19.02
2023-03-11T16:49:06.774Z,18.95
2023-03-11T16:51:34.365Z,18.93
2023-03-11T16:54:01.817Z,18.56
2023-03-11T16:56:29.390Z,18.20
2023-03-11T16:58:56.777Z,17.82
2023-03-11T17:01:24.341Z,17.52
2023-03-11T17:03:52.683Z,17.25
2023-03-11T17:06:21.062Z,17.04
2023-03-11T17:08:51.301Z,16.57
2023-03-11T17:11:21.645Z,16.32
2023-03-11T17:13:50.642Z,16.08
2023-03-11T17:16:18.060Z,15.93
2023-03-11T17:18:45.449Z,15.84
2023-03-11T17:21:14.996Z,16.08
2023-03-11T17:23:43.232Z,15.74
2023-03-11T17:26:15.950Z,15.54
2023-03-11T17:28:43.728Z,15.45
2023-03-11T17:31:13.283Z,15.31
2023-03-11T17:33:41.040Z,15.08
2023-03-11T17:36:11.585Z,14.91
2023-03-11T17:38:38.962Z,14.69
2023-03-11T17:41:08.832Z,14.52
2023-03-11T17:43:36.345Z,14.46
2023-03-11T17:46:07.310Z,14.33
2023-03-11T17:48:34.720Z,14.26
2023-03-11T17:51:10.353Z,14.07
2023-03-11T17:53:39.350Z,14.00
2023-03-11T17:56:07.751Z,13.77
2023-03-11T17:58:35.913Z,13.64
2023-03-11T18:01:05.936Z,13.55
2023-03-11T18:03:33.682Z,13.52
2023-03-11T18:06:03.710Z,13.44
2023-03-11T18:08:31.787Z,13.35
2023-03-11T18:11:08.385Z,13.32
2023-03-11T18:13:37.392Z,13.07
2023-03-11T18:16:06.541Z,13.08
2023-03-11T18:18:35.454Z,12.90
2023-03-11T18:21:29.855Z,12.82
2023-03-11T18:23:59.959Z,12.76
2023-03-11T18:26:29.843Z,12.75
2023-03-11T18:28:59.720Z,12.55
2023-03-11T18:31:29.070Z,12.47
2023-03-11T18:34:02.346Z,12.28
2023-03-11T18:36:36.004Z,12.18
2023-03-11T18:39:04.783Z,12.16
2023-03-11T18:41:35.134Z,12.05
2023-03-11T18:44:03.024Z,11.87
2023-03-11T18:46:32.017Z,11.82
2023-03-11T18:49:01.001Z,11.79
2023-03-11T18:51:31.249Z,11.78
2023-03-11T18:54:00.134Z,11.69
2023-03-11T18:56:28.118Z,11.63
2023-03-11T18:58:56.202Z,11.53
2023-03-11T19:01:23.879Z,11.48
2023-03-11T19:03:58.810Z,11.41
2023-03-11T19:06:27.764Z,11.29
2023-03-11T19:08:55.681Z,11.23
2023-03-11T19:11:24.576Z,11.12
2023-03-11T19:13:52.825Z,11.10
2023-03-11T19:16:24.234Z,11.09
2023-03-11T19:18:53.906Z,11.03
2023-03-11T19:21:22.427Z,10.94
2023-03-11T19:23:52.878Z,10.90
2023-03-11T19:26:23.930Z,10.89
2023-03-11T19:28:55.491Z,10.91
2023-03-11T19:31:22.987Z,11.05
2023-03-11T19:33:51.239Z,11.09
2023-03-11T19:36:18.857Z,11.06
2023-03-11T19:38:47.710Z,11.01
2023-03-11T19:41:20.440Z,10.97
2023-03-11T19:43:48.340Z,10.82
2023-03-11T19:46:18.144Z,10.84
2023-03-11T19:48:45.611Z,10.75
2023-03-11T19:51:13.146Z,10.71
2023-03-11T19:53:41.773Z,10.71
2023-03-11T19:56:09.802Z,10.63
2023-03-11T19:58:37.363Z,10.61
2023-03-11T20:01:04.985Z,10.56
2023-03-11T20:03:32.515Z,10.49
2023-03-11T20:06:08.946Z,10.49
2023-03-11T20:08:37.800Z,10.41
2023-03-11T20:11:06.461Z,10.41
2023-03-11T20:13:36.167Z,10.33
2023-03-11T20:16:09.016Z,10.30
2023-03-11T20:18:36.728Z,10.25
2023-03-11T20:21:07.113Z,10.14
2023-03-11T20:23:34.951Z,10.08
2023-03-11T20:26:13.623Z,10.08
2023-03-11T20:28:41.303Z,10.06
2023-03-11T20:31:14.585Z,9.93
2023-03-11T20:33:41.960Z,9.86
2023-03-11T20:36:13.293Z,9.80
2023-03-11T20:38:41.191Z,9.65
2023-03-11T20:41:09.880Z,9.61
2023-03-11T20:43:38.416Z,9.82
2023-03-11T20:46:07.776Z,9.76
2023-03-11T20:48:37.253Z,9.67
2023-03-11T20:51:07.637Z,9.50
2023-03-11T20:53:35.127Z,9.45
2023-03-11T20:56:15.053Z,9.40
2023-03-11T20:58:43.485Z,9.33
2023-03-11T21:01:16.024Z,9.28
2023-03-11T21:03:44.637Z,9.23
2023-03-11T21:06:15.208Z,9.21
2023-03-11T21:08:43.209Z,9.09
2023-03-11T21:11:10.872Z,9.12
2023-03-11T21:13:38.503Z,9.15
2023-03-11T21:16:07.484Z,9.22
2023-03-11T21:18:35.289Z,9.15
2023-03-11T21:21:04.011Z,9.03
2023-03-11T21:23:31.393Z,9.03
2023-03-11T21:26:03.666Z,9.00
2023-03-11T21:28:33.248Z,8.95
2023-03-11T21:31:05.656Z,8.92
2023-03-11T21:33:33.382Z,8.96
2023-03-11T21:36:01.413Z,8.89
2023-03-11T21:38:29.214Z,8.93
2023-03-11T21:41:12.559Z,8.89
2023-03-11T21:43:41.878Z,8.86
2023-03-11T21:46:12.963Z,8.77
2023-03-11T21:48:40.910Z,8.73
2023-03-11T21:51:08.710Z,8.71
2023-03-11T21:53:36.409Z,8.66
2023-03-11T21:56:04.668Z,8.64
2023-03-11T21:58:33.446Z,8.64
2023-03-11T22:01:01.232Z,8.70
2023-03-11T22:03:30.815Z,8.71
2023-03-11T22:05:59.862Z,8.71
2023-03-11T22:08:27.643Z,8.76
2023-03-11T22:10:56.452Z,8.72
2023-03-11T22:13:24.343Z,8.62
2023-03-11T22:15:52.199Z,8.52
2023-03-11T22:18:20.013Z,8.51
2023-03-11T22:20:47.747Z,8.52
2023-03-11T22:23:15.275Z,8.45
2023-03-11T22:25:43.036Z,8.39
2023-03-11T22:28:13.109Z,8.36
2023-03-11T22:30:40.594Z,8.28
2023-03-11T22:33:08.048Z,8.38
2023-03-11T22:35:35.560Z,8.45
2023-03-11T22:38:03.122Z,8.44
2023-03-11T22:40:30.597Z,8.36
2023-03-11T22:42:58.045Z,8.26
2023-03-11T22:45:25.460Z,8.26
2023-03-11T22:47:54.270Z,8.24
2023-03-11T22:50:21.904Z,8.29
2023-03-11T22:52:49.350Z,8.24
2023-03-11T22:55:16.808Z,8.18
2023-03-11T22:57:44.550Z,8.23
2023-03-11T23:00:19.460Z,8.19
2023-03-11T23:02:48.608Z,8.15
2023-03-11T23:05:16.230Z,8.07
2023-03-11T23:07:44.217Z,8.10
2023-03-11T23:10:13.699Z,8.12
2023-03-11T23:12:41.274Z,8.08
2023-03-11T23:15:14.909Z,8.03
2023-03-11T23:17:42.664Z,8.01
2023-03-11T23:20:13.813Z,8.07
2023-03-11T23:22:42.130Z,7.99
2023-03-11T23:25:14.559Z,7.94
2023-03-11T23:27:43.673Z,7.92
2023-03-11T23:30:12.502Z,7.90
2023-03-11T23:32:40.358Z,7.82
2023-03-11T23:35:08.069Z,7.81
2023-03-11T23:37:35.719Z,7.77
2023-03-11T23:40:05.058Z,7.68
2023-03-11T23:42:34.411Z,7.76
2023-03-11T23:45:02.276Z,7.66
2023-03-11T23:47:29.810Z,7.62
2023-03-11T23:49:57.191Z,7.56
2023-03-11T23:52:25.160Z,7.47
2023-03-11T23:54:52.592Z,7.44
2023-03-11T23:57:20.009Z,7.40
2023-03-11T23:59:47.929Z,7.34
